createdAt,value
2019-05-18T00:03:22.388Z,76.20
2019-05-18T00:13:24.640Z,76.40
2019-05-18T00:23:26.599Z,77.50
2019-05-18T00:33:28.648Z,76.90
2019-05-18T00:43:30.584Z,77.10
2019-05-18T00:53:32.556Z,76.20
2019-05-18T01:03:34.911Z,74.50
2019-05-18T01:13:38.806Z,73.00
2019-05-18T01:23:40.908Z,72.00
2019-05-18T01:33:42.988Z,71.20
2019-05-18T01:43:45.007Z,70.70
2019-05-18T01:53:46.946Z,70.50
2019-05-18T02:03:48.935Z,70.60
2019-05-18T02:13:50.933Z,71.10
2019-05-18T02:24:12.338Z,71.40
2019-05-18T02:34:14.628Z,71.70
2019-05-18T02:44:16.675Z,71.60
2019-05-18T02:54:18.740Z,71.30
2019-05-18T03:04:20.729Z,71.40
2019-05-18T03:14:22.671Z,71.60
2019-05-18T03:24:24.757Z,71.60
2019-05-18T03:34:26.666Z,71.20
2019-05-18T03:44:28.777Z,72.10
2019-05-18T03:54:30.975Z,71.90
2019-05-18T04:04:32.952Z,71.70
2019-05-18T04:14:34.993Z,71.60
2019-05-18T04:24:37.054Z,71.60
2019-05-18T04:34:39.025Z,71.00
2019-05-18T04:44:41.391Z,70.80
2019-05-18T04:54:43.466Z,70.30
2019-05-18T05:04:45.412Z,70.20
2019-05-18T05:14:47.479Z,70.10
2019-05-18T05:24:49.564Z,70.10
2019-05-18T05:34:51.552Z,70.00
2019-05-18T05:44:53.743Z,70.00
2019-05-18T05:54:56.122Z,69.40
2019-05-18T06:04:58.096Z,68.90
2019-05-18T06:15:00.037Z,68.70
2019-05-18T06:25:05.336Z,68.10
2019-05-18T06:35:08.085Z,67.30
2019-05-18T06:45:09.882Z,66.40
2019-05-18T06:55:11.880Z,65.60
2019-05-18T07:05:13.967Z,64.80
2019-05-18T07:15:16.360Z,63.40
2019-05-18T07:25:18.772Z,62.30
2019-05-18T07:35:20.728Z,61.20
2019-05-18T07:45:22.972Z,59.80
2019-05-18T07:55:25.015Z,59.00
2019-05-18T08:05:27.236Z,58.00
2019-05-18T08:15:29.183Z,57.20
2019-05-18T08:25:31.513Z,57.50
2019-05-18T08:35:33.177Z,57.70
2019-05-18T08:45:35.160Z,56.80
2019-05-18T08:55:37.140Z,56.00
2019-05-18T09:05:39.863Z,55.50
2019-05-18T09:15:42.422Z,55.40
2019-05-18T09:25:44.531Z,55.20
2019-05-18T09:35:46.081Z,55.00
2019-05-18T09:45:48.119Z,52.90
2019-05-18T09:55:50.183Z,54.10
2019-05-18T10:05:51.722Z,54.10
2019-05-18T10:15:53.651Z,52.50
2019-05-18T10:25:55.685Z,53.30
2019-05-18T10:35:57.158Z,51.80
2019-05-18T10:45:59.203Z,49.60
2019-05-18T10:56:01.301Z,50.70
2019-05-18T11:06:03.373Z,48.40
2019-05-18T11:16:05.316Z,47.00
2019-05-18T11:26:07.215Z,45.30
2019-05-18T11:36:09.215Z,44.30
2019-05-18T11:46:11.209Z,42.70
2019-05-18T11:56:13.235Z,41.50
2019-05-18T12:06:15.303Z,38.90
2019-05-18T12:16:17.651Z,21.50
2019-05-18T12:26:19.659Z,14.70
2019-05-18T12:36:21.756Z,8.80
2019-05-18T12:46:23.792Z,6.40
2019-05-18T12:56:25.884Z,5.30
2019-05-18T13:06:27.928Z,4.40
2019-05-18T13:16:30.107Z,3.30
2019-05-18T13:26:32.450Z,2.30
2019-05-18T13:36:34.414Z,3.40
2019-05-18T13:46:36.364Z,3.30
2019-05-18T13:56:39.944Z,12.00
2019-05-18T14:06:42.212Z,16.80
2019-05-18T14:16:44.416Z,18.90
2019-05-18T14:26:46.464Z,21.70
2019-05-18T14:36:48.729Z,22.50
2019-05-18T14:46:50.918Z,21.00
2019-05-18T14:56:53.763Z,16.20
2019-05-18T15:06:55.687Z,19.10
2019-05-18T15:16:57.668Z,22.00
2019-05-18T15:26:59.742Z,23.90
2019-05-18T15:37:01.925Z,25.40
2019-05-18T15:47:04.274Z,27.10
2019-05-18T15:57:06.256Z,28.10
2019-05-18T16:07:08.399Z,28.80
2019-05-18T16:17:10.487Z,29.00
2019-05-18T16:27:12.582Z,28.60
2019-05-18T16:37:14.807Z,29.40
2019-05-18T16:47:16.917Z,30.50
2019-05-18T16:57:18.966Z,31.60
2019-05-18T17:07:21.046Z,32.40
2019-05-18T17:17:23.108Z,33.80
2019-05-18T17:27:25.619Z,34.70
2019-05-18T17:37:27.555Z,35.00
2019-05-18T17:47:31.871Z,35.90
2019-05-18T17:57:33.952Z,37.00
2019-05-18T18:07:35.920Z,38.50
2019-05-18T18:17:37.357Z,40.50
2019-05-18T18:27:39.403Z,45.20
2019-05-18T18:37:40.813Z,42.30
2019-05-18T18:47:42.919Z,45.90
2019-05-18T18:57:44.541Z,43.70
2019-05-18T19:07:46.501Z,48.80
2019-05-18T19:17:48.530Z,45.50
2019-05-18T19:27:55.050Z,46.60
2019-05-18T19:37:54.837Z,47.40
2019-05-18T19:47:56.868Z,47.50
2019-05-18T19:58:08.465Z,48.10
2019-05-18T20:08:03.045Z,48.10
2019-05-18T20:18:05.000Z,48.70
2019-05-18T20:28:07.011Z,49.10
2019-05-18T20:38:08.992Z,49.60
2019-05-18T20:48:11.082Z,48.90
2019-05-18T20:58:13.091Z,50.30
2019-05-18T21:08:15.261Z,52.80
2019-05-18T21:18:17.260Z,56.50
2019-05-18T21:28:19.420Z,59.50
2019-05-18T21:38:21.617Z,61.10
2019-05-18T21:48:23.675Z,62.40
2019-05-18T21:58:25.629Z,63.80
2019-05-18T22:08:27.581Z,64.50
2019-05-18T22:18:29.555Z,66.00
2019-05-18T22:28:31.533Z,66.80
2019-05-18T22:38:33.945Z,67.80
2019-05-18T22:48:41.353Z,68.90
2019-05-18T22:58:38.682Z,75.30
2019-05-18T23:08:40.655Z,75.40
2019-05-18T23:18:55.878Z,68.30
2019-05-18T23:28:46.365Z,69.70
2019-05-18T23:38:48.376Z,70.30
2019-05-18T23:48:50.341Z,71.00
2019-05-18T23:58:52.335Z,70.90
